createdAt,value
2017-09-01T00:00:30.587Z,0
2017-09-01T00:01:40.953Z,0
2017-09-01T00:02:51.304Z,0
2017-09-01T00:04:01.642Z,0
2017-09-01T00:05:11.678Z,0
2017-09-01T00:06:22.061Z,0
2017-09-01T00:07:32.423Z,0
2017-09-01T00:08:42.763Z,0
2017-09-01T00:09:53.104Z,0
2017-09-01T00:11:03.456Z,0
2017-09-01T00:12:13.803Z,0
2017-09-01T00:13:24.127Z,0
2017-09-01T00:14:34.474Z,0
2017-09-01T00:15:44.509Z,0
2017-09-01T00:16:54.871Z,0
2017-09-01T00:18:04.945Z,0
2017-09-01T00:19:15.292Z,0
2017-09-01T00:20:25.637Z,0
2017-09-01T00:21:35.978Z,0
2017-09-01T00:22:46.005Z,0
2017-09-01T00:23:56.406Z,0
2017-09-01T00:25:06.448Z,0
2017-09-01T00:26:16.786Z,0
2017-09-01T00:27:26.810Z,0
2017-09-01T00:28:37.168Z,0
2017-09-01T00:29:47.510Z,0
2017-09-01T00:30:57.868Z,0
2017-09-01T00:32:08.215Z,0
2017-09-01T00:33:18.579Z,0
2017-09-01T00:34:28.610Z,0
2017-09-01T00:35:38.690Z,0
2017-09-01T00:36:48.415Z,0
2017-09-01T00:37:58.439Z,0
2017-09-01T00:39:08.782Z,0
2017-09-01T00:40:18.807Z,0
2017-09-01T00:41:29.214Z,0
2017-09-01T00:42:39.581Z,0
2017-09-01T00:43:49.915Z,0
2017-09-01T00:45:00.251Z,0
2017-09-01T00:46:10.280Z,0
2017-09-01T00:47:20.624Z,0
2017-09-01T00:48:30.648Z,0
2017-09-01T00:49:40.715Z,0
2017-09-01T00:50:51.058Z,0
2017-09-01T00:52:01.409Z,0
2017-09-01T00:53:11.442Z,0
2017-09-01T00:54:21.474Z,0
2017-09-01T00:55:31.188Z,0
2017-09-01T00:56:41.528Z,0
2017-09-01T00:57:51.865Z,0
2017-09-01T00:59:02.201Z,0
2017-09-01T01:00:12.562Z,0
2017-09-01T01:01:22.917Z,0
2017-09-01T01:02:33.284Z,0
2017-09-01T01:03:43.311Z,0
2017-09-01T01:04:53.699Z,0
2017-09-01T01:06:03.725Z,0
2017-09-01T01:07:14.106Z,0
2017-09-01T01:08:24.452Z,0
2017-09-01T01:09:34.796Z,0
2017-09-01T01:10:45.208Z,0
2017-09-01T01:11:55.551Z,0
2017-09-01T01:13:05.564Z,0
2017-09-01T01:14:15.888Z,0
2017-09-01T01:15:25.905Z,0
2017-09-01T01:16:36.253Z,0
2017-09-01T01:17:46.608Z,0
2017-09-01T01:18:56.974Z,0
2017-09-01T01:20:07.324Z,0
2017-09-01T01:21:19.121Z,0
2017-09-01T01:22:29.512Z,0
2017-09-01T01:23:39.846Z,0
2017-09-01T01:24:52.370Z,0
2017-09-01T01:26:02.418Z,0
2017-09-01T01:27:12.439Z,0
2017-09-01T01:28:22.794Z,0
2017-09-01T01:29:33.140Z,0
2017-09-01T01:30:43.489Z,0
2017-09-01T01:31:53.836Z,0
2017-09-01T01:33:03.875Z,0
2017-09-01T01:34:14.276Z,0
2017-09-01T01:35:26.016Z,0
2017-09-01T01:36:36.045Z,0
2017-09-01T01:37:46.407Z,0
2017-09-01T01:38:56.750Z,0
2017-09-01T01:40:07.083Z,0
2017-09-01T01:41:17.423Z,0
2017-09-01T01:42:27.785Z,0
2017-09-01T01:43:37.811Z,0
2017-09-01T01:44:48.165Z,0
2017-09-01T01:45:58.566Z,0
2017-09-01T01:47:08.904Z,0
2017-09-01T01:48:18.930Z,0
2017-09-01T01:49:29.288Z,0
2017-09-01T01:50:39.626Z,0
2017-09-01T01:51:49.641Z,0
2017-09-01T01:53:00.025Z,0
2017-09-01T01:54:10.382Z,0
2017-09-01T01:55:20.410Z,0
2017-09-01T01:56:30.747Z,0
2017-09-01T01:57:40.469Z,0
2017-09-01T01:58:50.809Z,0
2017-09-01T02:00:00.828Z,0
2017-09-01T02:01:11.159Z,0
2017-09-01T02:02:21.513Z,0
2017-09-01T02:03:31.913Z,0
2017-09-01T02:04:41.944Z,0
2017-09-01T02:05:51.967Z,0
2017-09-01T02:07:02.000Z,0
2017-09-01T02:08:12.028Z,0
2017-09-01T02:09:22.421Z,0
2017-09-01T02:10:32.445Z,0
2017-09-01T02:11:42.795Z,0
2017-09-01T02:12:52.837Z,0
2017-09-01T02:14:02.861Z,0
2017-09-01T02:15:12.890Z,0
2017-09-01T02:16:23.244Z,0
2017-09-01T02:17:33.570Z,0
2017-09-01T02:18:43.919Z,0
2017-09-01T02:19:54.260Z,0
2017-09-01T02:21:04.647Z,0
2017-09-01T02:22:14.661Z,0
2017-09-01T02:23:25.028Z,0
2017-09-01T02:24:35.364Z,0
2017-09-01T02:25:45.702Z,0
2017-09-01T02:26:55.736Z,0
2017-09-01T02:28:06.093Z,0
2017-09-01T02:29:16.136Z,0
2017-09-01T02:30:26.488Z,0
2017-09-01T02:31:36.540Z,0
2017-09-01T02:32:46.877Z,0
2017-09-01T02:33:57.223Z,0
2017-09-01T02:35:07.570Z,0
2017-09-01T02:36:17.607Z,0
2017-09-01T02:37:27.954Z,0
2017-09-01T02:38:38.299Z,0
2017-09-01T02:39:48.012Z,0
2017-09-01T02:40:58.034Z,0
2017-09-01T02:42:08.385Z,0
2017-09-01T02:43:18.732Z,0
2017-09-01T02:44:29.122Z,0
2017-09-01T02:45:39.766Z,0
2017-09-01T02:46:50.113Z,0
2017-09-01T02:48:00.155Z,0
2017-09-01T02:49:10.487Z,0
2017-09-01T02:50:20.838Z,0
2017-09-01T02:51:31.197Z,0
2017-09-01T02:52:41.562Z,0
2017-09-01T02:53:51.898Z,0
2017-09-01T02:55:02.232Z,0
2017-09-01T02:56:12.248Z,0
2017-09-01T02:57:22.610Z,0
2017-09-01T02:58:32.320Z,0
2017-09-01T02:59:42.365Z,0
2017-09-01T03:00:52.712Z,0
2017-09-01T03:02:03.049Z,0
2017-09-01T03:33:45.965Z,0
2017-09-01T03:34:55.986Z,0
2017-09-01T03:36:05.987Z,0
2017-09-01T03:37:15.996Z,0
2017-09-01T03:38:26.017Z,0
2017-09-01T03:39:36.408Z,0
2017-09-01T03:40:46.434Z,0
2017-09-01T03:41:56.791Z,0
2017-09-01T03:43:06.809Z,0
2017-09-01T03:44:17.152Z,0
2017-09-01T03:45:27.526Z,0
2017-09-01T03:46:37.863Z,0
2017-09-01T03:47:47.899Z,0
2017-09-01T03:48:57.921Z,0
2017-09-01T03:50:08.273Z,0
2017-09-01T03:51:18.297Z,0
2017-09-01T03:52:28.347Z,0
2017-09-01T03:53:38.728Z,0
2017-09-01T03:54:49.070Z,0
2017-09-01T03:55:59.123Z,0
2017-09-01T03:57:09.140Z,0
2017-09-01T03:58:19.483Z,0
2017-09-01T03:59:29.830Z,0
2017-09-01T04:00:40.176Z,0
2017-09-01T04:01:50.538Z,0
2017-09-01T04:03:00.931Z,0
2017-09-01T04:04:11.289Z,0
2017-09-01T04:05:21.648Z,0
2017-09-01T04:06:31.662Z,0
2017-09-01T04:07:42.004Z,0
2017-09-01T04:08:52.396Z,0
2017-09-01T04:10:02.746Z,0
2017-09-01T04:11:13.088Z,0
2017-09-01T04:12:23.430Z,0
2017-09-01T04:13:33.783Z,0
2017-09-01T04:14:44.197Z,0
2017-09-01T04:15:54.557Z,0
2017-09-01T04:17:04.590Z,0
2017-09-01T04:18:14.305Z,0
2017-09-01T04:19:24.658Z,0
2017-09-01T04:20:35.002Z,0
2017-09-01T04:21:45.049Z,0
2017-09-01T04:22:55.409Z,0
2017-09-01T04:24:05.747Z,5
2017-09-01T04:25:16.076Z,5
2017-09-01T04:26:26.404Z,5
2017-09-01T04:27:36.427Z,5
2017-09-01T04:28:46.833Z,5
2017-09-01T04:29:57.184Z,5
2017-09-01T04:31:07.205Z,5
2017-09-01T04:32:19.412Z,5
2017-09-01T04:33:29.759Z,10
2017-09-01T04:34:40.092Z,10
2017-09-01T04:35:50.448Z,10
2017-09-01T04:37:00.486Z,10
2017-09-01T04:38:10.848Z,10
2017-09-01T04:39:21.198Z,10
2017-09-01T04:40:31.535Z,10
2017-09-01T04:41:41.891Z,15
2017-09-01T04:42:51.912Z,15
2017-09-01T04:44:01.985Z,15
2017-09-01T04:45:12.322Z,15
2017-09-01T04:46:22.352Z,20
2017-09-01T04:47:32.683Z,20
2017-09-01T04:48:42.407Z,20
2017-09-01T04:49:52.438Z,20
2017-09-01T04:51:02.471Z,25
2017-09-01T04:52:12.877Z,25
2017-09-01T04:53:22.906Z,25
2017-09-01T04:54:32.927Z,25
2017-09-01T04:55:43.928Z,25
2017-09-01T04:56:54.257Z,25
2017-09-01T04:58:04.595Z,25
2017-09-01T04:59:14.638Z,25
2017-09-01T05:00:25.216Z,25
2017-09-01T05:01:35.242Z,25
2017-09-01T05:02:45.255Z,30
2017-09-01T05:03:55.609Z,30
2017-09-01T05:05:05.957Z,30
2017-09-01T05:06:16.314Z,30
2017-09-01T05:07:26.696Z,35
2017-09-01T05:08:36.720Z,35
2017-09-01T05:09:47.078Z,40
2017-09-01T05:10:57.100Z,45
2017-09-01T05:12:07.435Z,45
2017-09-01T05:13:17.834Z,45
2017-09-01T05:14:28.882Z,55
2017-09-01T05:15:38.911Z,60
2017-09-01T05:16:49.266Z,65
2017-09-01T05:17:58.972Z,70
2017-09-01T05:19:08.672Z,75
2017-09-01T05:20:18.691Z,75
2017-09-01T05:21:29.040Z,80
2017-09-01T05:22:39.399Z,85
2017-09-01T05:23:49.743Z,95
2017-09-01T05:24:59.844Z,85
2017-09-01T05:26:10.190Z,95
2017-09-01T05:27:20.221Z,100
2017-09-01T05:28:30.572Z,100
2017-09-01T05:29:40.915Z,95
2017-09-01T05:30:51.667Z,100
2017-09-01T05:32:02.018Z,100
2017-09-01T05:33:13.592Z,100
2017-09-01T05:34:23.632Z,95
2017-09-01T05:35:33.993Z,100
2017-09-01T05:36:44.352Z,95
2017-09-01T05:37:54.716Z,90
2017-09-01T05:39:05.209Z,80
2017-09-01T05:40:16.875Z,80
2017-09-01T05:41:27.227Z,80
2017-09-01T05:42:37.559Z,75
2017-09-01T05:43:47.895Z,80
2017-09-01T05:44:57.914Z,85
2017-09-01T05:46:08.249Z,90
2017-09-01T05:47:18.595Z,95
2017-09-01T05:48:28.629Z,110
2017-09-01T05:49:38.986Z,105
2017-09-01T05:50:49.351Z,105
2017-09-01T05:51:59.696Z,110
2017-09-01T05:53:10.045Z,115
2017-09-01T05:54:20.132Z,125
2017-09-01T05:55:30.982Z,120
2017-09-01T05:56:41.326Z,125
2017-09-01T05:57:51.668Z,140
2017-09-01T05:59:01.696Z,135
2017-09-01T06:00:11.786Z,125
2017-09-01T06:01:22.137Z,120
2017-09-01T06:02:32.474Z,125
2017-09-01T06:03:42.517Z,125
2017-09-01T06:04:52.242Z,110
2017-09-01T06:06:02.641Z,105
2017-09-01T06:07:12.672Z,110
2017-09-01T06:08:23.014Z,115
2017-09-01T06:09:33.039Z,125
2017-09-01T06:10:43.381Z,125
2017-09-01T06:11:53.770Z,125
2017-09-01T06:13:04.115Z,125
2017-09-01T06:14:14.147Z,130
2017-09-01T06:15:24.508Z,140
2017-09-01T06:16:34.869Z,145
2017-09-01T06:17:44.923Z,155
2017-09-01T06:18:54.636Z,160
2017-09-01T06:20:04.663Z,165
2017-09-01T06:21:14.997Z,155
2017-09-01T06:22:25.015Z,150
2017-09-01T06:23:35.361Z,155
2017-09-01T06:24:47.383Z,150
2017-09-01T06:25:57.415Z,150
2017-09-01T06:27:07.440Z,150
2017-09-01T06:28:17.775Z,150
2017-09-01T06:29:28.183Z,150
2017-09-01T06:30:38.556Z,150
2017-09-01T06:31:48.898Z,150
2017-09-01T06:32:58.953Z,155
2017-09-01T06:34:09.301Z,155
2017-09-01T06:35:19.632Z,150
2017-09-01T06:36:29.972Z,155
2017-09-01T06:37:39.988Z,155
2017-09-01T06:38:50.338Z,165
2017-09-01T06:40:00.355Z,170
2017-09-01T06:41:10.377Z,170
2017-09-01T06:42:20.721Z,165
2017-09-01T06:43:30.752Z,175
2017-09-01T06:44:40.466Z,180
2017-09-01T06:45:50.807Z,180
2017-09-01T06:47:01.208Z,185
2017-09-01T06:48:11.611Z,185
2017-09-01T06:49:21.978Z,190
2017-09-01T06:50:32.318Z,195
2017-09-01T06:51:42.669Z,195
2017-09-01T06:52:53.074Z,200
2017-09-01T06:54:03.093Z,200
2017-09-01T06:55:13.463Z,205
2017-09-01T06:56:23.815Z,205
2017-09-01T06:57:34.212Z,200
2017-09-01T06:58:44.566Z,200
2017-09-01T06:59:54.915Z,185
2017-09-01T07:01:05.293Z,190
2017-09-01T07:02:15.331Z,195
2017-09-01T07:03:25.357Z,195
2017-09-01T07:04:35.378Z,195
2017-09-01T07:05:45.090Z,180
2017-09-01T07:06:55.113Z,175
2017-09-01T07:08:05.455Z,160
2017-09-01T07:09:15.811Z,155
2017-09-01T07:10:26.207Z,150
2017-09-01T07:11:36.580Z,140
2017-09-01T07:12:46.929Z,135
2017-09-01T07:13:57.281Z,125
2017-09-01T07:15:07.315Z,115
2017-09-01T07:16:17.382Z,110
2017-09-01T07:17:27.727Z,115
2017-09-01T07:18:38.084Z,120
2017-09-01T07:19:48.439Z,130
2017-09-01T07:20:58.774Z,140
2017-09-01T07:22:08.856Z,150
2017-09-01T07:23:18.875Z,165
2017-09-01T07:24:29.224Z,180
2017-09-01T07:25:39.250Z,190
2017-09-01T07:26:48.967Z,215
2017-09-01T07:27:59.017Z,225
2017-09-01T07:29:09.393Z,250
2017-09-01T07:30:19.751Z,255
2017-09-01T07:31:29.788Z,275
2017-09-01T07:32:39.825Z,265
2017-09-01T07:33:50.197Z,255
2017-09-01T07:35:00.553Z,240
2017-09-01T07:36:10.255Z,235
2017-09-01T07:37:20.584Z,220
2017-09-01T07:38:30.918Z,210
2017-09-01T07:39:41.321Z,200
2017-09-01T07:40:51.693Z,195
2017-09-01T07:42:02.039Z,190
2017-09-01T07:43:12.369Z,200
2017-09-01T07:44:22.717Z,215
2017-09-01T07:45:33.109Z,225
2017-09-01T07:46:43.449Z,220
2017-09-01T07:47:53.474Z,205
2017-09-01T07:49:03.827Z,180
2017-09-01T07:50:14.177Z,180
2017-09-01T07:51:24.249Z,185
2017-09-01T07:52:34.646Z,190
2017-09-01T07:53:44.993Z,190
2017-09-01T07:54:55.348Z,195
2017-09-01T07:56:05.396Z,200
2017-09-01T07:57:15.133Z,205
2017-09-01T07:58:25.490Z,200
2017-09-01T07:59:35.516Z,195
2017-09-01T08:00:45.539Z,200
2017-09-01T08:01:55.893Z,205
2017-09-01T08:03:06.291Z,205
2017-09-01T08:04:16.641Z,200
2017-09-01T08:05:26.365Z,195
2017-09-01T08:06:36.707Z,195
2017-09-01T08:07:47.057Z,195
2017-09-01T08:08:57.541Z,190
2017-09-01T08:10:07.558Z,185
2017-09-01T08:11:17.916Z,190
2017-09-01T08:12:27.982Z,210
2017-09-01T08:13:37.687Z,225
2017-09-01T08:14:48.083Z,250
2017-09-01T08:15:58.437Z,255
2017-09-01T08:17:08.467Z,270
2017-09-01T08:18:18.803Z,275
2017-09-01T08:19:28.981Z,270
2017-09-01T08:20:39.388Z,260
2017-09-01T08:21:49.444Z,260
2017-09-01T08:23:00.379Z,260
2017-09-01T08:24:10.724Z,255
2017-09-01T08:25:21.320Z,255
2017-09-01T08:26:31.677Z,255
2017-09-01T08:27:42.086Z,265
2017-09-01T08:28:52.115Z,275
2017-09-01T08:30:02.172Z,275
2017-09-01T08:31:12.566Z,250
2017-09-01T08:32:22.280Z,240
2017-09-01T08:33:32.665Z,230
2017-09-01T08:34:43.023Z,225
2017-09-01T08:35:53.050Z,220
2017-09-01T08:37:03.412Z,210
2017-09-01T08:38:13.760Z,230
2017-09-01T08:39:24.311Z,230
2017-09-01T08:40:34.663Z,220
2017-09-01T08:41:45.010Z,200
2017-09-01T08:42:55.381Z,210
2017-09-01T08:44:05.725Z,230
2017-09-01T08:45:15.760Z,235
2017-09-01T08:46:27.503Z,235
2017-09-01T08:47:37.853Z,230
2017-09-01T08:48:48.199Z,220
2017-09-01T08:49:58.227Z,230
2017-09-01T08:51:08.560Z,235
2017-09-01T08:52:18.901Z,235
2017-09-01T08:53:30.149Z,235
2017-09-01T08:54:40.480Z,230
2017-09-01T08:55:50.846Z,230
2017-09-01T08:57:01.196Z,235
2017-09-01T08:58:11.544Z,235
2017-09-01T08:59:21.626Z,245
2017-09-01T09:00:31.342Z,250
2017-09-01T09:01:41.686Z,250
2017-09-01T09:02:51.720Z,240
2017-09-01T09:04:02.056Z,220
2017-09-01T09:05:12.455Z,210
2017-09-01T09:06:22.818Z,215
2017-09-01T09:07:33.168Z,220
2017-09-01T09:08:42.881Z,225
2017-09-01T09:09:53.241Z,205
2017-09-01T09:11:03.589Z,205
2017-09-01T09:12:13.949Z,225
2017-09-01T09:13:24.303Z,240
2017-09-01T09:14:34.649Z,235
2017-09-01T09:15:44.699Z,250
2017-09-01T09:16:55.107Z,260
2017-09-01T09:18:05.141Z,265
2017-09-01T09:19:15.497Z,270
2017-09-01T09:20:25.860Z,275
2017-09-01T09:21:36.225Z,275
2017-09-01T09:22:46.569Z,285
2017-09-01T09:23:56.922Z,285
2017-09-01T09:25:06.953Z,280
2017-09-01T09:26:16.979Z,280
2017-09-01T09:27:27.001Z,285
2017-09-01T09:28:37.044Z,295
2017-09-01T09:29:47.092Z,300
2017-09-01T09:30:57.455Z,300
2017-09-01T09:32:07.818Z,300
2017-09-01T09:33:17.863Z,290
2017-09-01T09:34:27.963Z,290
2017-09-01T09:35:38.315Z,280
2017-09-01T09:36:48.665Z,280
2017-09-01T09:37:58.691Z,275
2017-09-01T09:39:09.038Z,280
2017-09-01T09:40:19.393Z,280
2017-09-01T09:41:29.756Z,275
2017-09-01T09:42:41.003Z,275
2017-09-01T09:43:51.040Z,295
2017-09-01T09:45:01.436Z,290
2017-09-01T09:46:11.826Z,275
2017-09-01T09:47:22.175Z,290
2017-09-01T09:48:32.542Z,280
2017-09-01T09:49:42.898Z,295
2017-09-01T09:50:53.306Z,285
2017-09-01T09:52:03.654Z,295
2017-09-01T09:53:13.999Z,305
2017-09-01T09:54:24.030Z,310
2017-09-01T09:55:34.374Z,350
2017-09-01T09:56:44.773Z,350
2017-09-01T09:57:55.122Z,335
2017-09-01T09:59:05.163Z,315
2017-09-01T10:00:15.199Z,315
2017-09-01T10:01:25.543Z,310
2017-09-01T10:02:35.635Z,310
2017-09-01T10:03:46.017Z,310
2017-09-01T10:04:56.371Z,295
2017-09-01T10:06:06.729Z,305
2017-09-01T10:07:17.105Z,315
2017-09-01T10:08:27.492Z,315
2017-09-01T10:09:37.853Z,305
2017-09-01T10:10:47.901Z,290
2017-09-01T10:11:58.271Z,275
2017-09-01T10:13:08.298Z,260
2017-09-01T10:14:18.386Z,250
2017-09-01T10:15:28.733Z,240
2017-09-01T10:16:39.087Z,235
2017-09-01T10:17:48.809Z,260
2017-09-01T10:18:59.158Z,265
2017-09-01T10:20:09.583Z,280
2017-09-01T10:21:19.943Z,295
2017-09-01T10:22:30.298Z,290
2017-09-01T10:23:40.644Z,280
2017-09-01T10:24:50.990Z,275
2017-09-01T10:26:01.083Z,275
2017-09-01T10:27:11.115Z,275
2017-09-01T10:28:21.467Z,280
2017-09-01T10:29:31.816Z,275
2017-09-01T10:30:42.175Z,280
2017-09-01T10:31:52.579Z,275
2017-09-01T10:33:02.930Z,260
2017-09-01T10:34:13.288Z,270
2017-09-01T10:35:23.324Z,270
2017-09-01T10:36:33.674Z,265
2017-09-01T10:37:43.756Z,265
2017-09-01T10:38:54.113Z,240
2017-09-01T10:40:04.517Z,235
2017-09-01T10:41:14.866Z,240
2017-09-01T10:42:25.219Z,220
2017-09-01T10:43:35.610Z,220
2017-09-01T10:44:45.971Z,205
2017-09-01T10:45:56.013Z,205
2017-09-01T10:47:06.036Z,220
2017-09-01T10:48:16.097Z,195
2017-09-01T10:49:26.171Z,190
2017-09-01T10:50:36.207Z,190
2017-09-01T10:51:46.552Z,200
2017-09-01T10:52:56.579Z,200
2017-09-01T10:54:06.950Z,200
2017-09-01T10:55:17.343Z,200
2017-09-01T10:56:27.401Z,210
2017-09-01T10:57:37.120Z,215
2017-09-01T10:58:47.827Z,220
2017-09-01T10:59:58.196Z,220
2017-09-01T11:01:08.586Z,225
2017-09-01T11:02:18.617Z,230
2017-09-01T11:03:28.651Z,230
2017-09-01T11:04:39.000Z,235
2017-09-01T11:05:49.023Z,245
2017-09-01T11:06:59.066Z,255
2017-09-01T11:08:09.422Z,265
2017-09-01T11:09:19.913Z,265
2017-09-01T11:10:30.252Z,270
2017-09-01T11:11:40.297Z,280
2017-09-01T11:12:50.680Z,285
2017-09-01T11:14:01.026Z,280
2017-09-01T11:15:10.791Z,280
2017-09-01T11:16:21.155Z,285
2017-09-01T11:17:31.513Z,295
2017-09-01T11:18:41.854Z,290
2017-09-01T11:19:52.201Z,290
2017-09-01T11:21:04.086Z,280
2017-09-01T11:22:14.439Z,270
2017-09-01T11:23:24.795Z,270
2017-09-01T11:24:35.302Z,255
2017-09-01T11:25:45.656Z,245
2017-09-01T11:26:56.022Z,230
2017-09-01T11:28:08.100Z,225
2017-09-01T11:29:21.295Z,210
2017-09-01T11:30:31.681Z,200
2017-09-01T11:31:42.031Z,195
2017-09-01T11:32:53.158Z,180
2017-09-01T11:34:03.561Z,170
2017-09-01T11:35:13.588Z,155
2017-09-01T11:36:23.937Z,145
2017-09-01T11:37:34.282Z,130
2017-09-01T11:38:44.319Z,120
2017-09-01T11:39:54.656Z,110
2017-09-01T11:41:05.022Z,100
2017-09-01T11:42:15.405Z,90
2017-09-01T11:43:25.751Z,80
2017-09-01T11:44:35.767Z,70
2017-09-01T11:45:46.128Z,65
2017-09-01T11:46:56.157Z,55
2017-09-01T11:48:06.513Z,50
2017-09-01T11:49:16.878Z,45
2017-09-01T11:50:27.238Z,40
2017-09-01T11:51:37.583Z,35
2017-09-01T11:52:47.928Z,35
2017-09-01T11:53:57.706Z,35
2017-09-01T11:55:08.064Z,30
2017-09-01T11:56:18.416Z,30
2017-09-01T11:57:28.434Z,25
2017-09-01T11:58:38.784Z,25
2017-09-01T11:59:48.883Z,20
2017-09-01T12:00:59.226Z,20
2017-09-01T12:02:09.270Z,20
2017-09-01T12:03:19.626Z,20
2017-09-01T12:04:29.657Z,15
2017-09-01T12:05:40.009Z,15
2017-09-01T12:06:50.365Z,15
2017-09-01T12:08:01.262Z,15
2017-09-01T12:09:11.299Z,15
2017-09-01T12:10:21.640Z,15
2017-09-01T12:11:32.018Z,10
2017-09-01T12:12:42.374Z,10
2017-09-01T12:13:52.761Z,10
2017-09-01T12:15:03.118Z,10
2017-09-01T12:16:13.771Z,10
2017-09-01T12:17:24.112Z,10
2017-09-01T12:18:34.138Z,10
2017-09-01T12:19:44.543Z,10
2017-09-01T12:20:54.246Z,10
2017-09-01T12:22:04.605Z,10
2017-09-01T12:23:14.631Z,10
2017-09-01T12:24:24.342Z,10
2017-09-01T12:25:34.742Z,10
2017-09-01T12:26:45.088Z,10
2017-09-01T12:27:55.437Z,15
2017-09-01T12:29:05.809Z,15
2017-09-01T12:30:15.835Z,15
2017-09-01T12:31:26.185Z,15
2017-09-01T12:32:36.546Z,15
2017-09-01T12:33:48.952Z,10
2017-09-01T12:34:58.965Z,10
2017-09-01T12:36:09.306Z,10
2017-09-01T12:37:19.381Z,10
2017-09-01T12:38:29.725Z,10
2017-09-01T12:39:39.747Z,15
2017-09-01T12:40:50.097Z,15
2017-09-01T12:42:00.469Z,15
2017-09-01T12:43:10.860Z,15
2017-09-01T12:44:21.248Z,20
2017-09-01T12:45:31.581Z,20
2017-09-01T12:46:41.942Z,20
2017-09-01T12:47:52.290Z,25
2017-09-01T12:49:02.699Z,25
2017-09-01T12:50:13.071Z,30
2017-09-01T12:51:23.423Z,30
2017-09-01T12:52:33.133Z,35
2017-09-01T12:53:43.469Z,35
2017-09-01T12:54:53.538Z,40
2017-09-01T12:56:03.887Z,45
2017-09-01T12:57:13.594Z,55
2017-09-01T12:58:23.638Z,60
2017-09-01T12:59:34.006Z,70
2017-09-01T13:00:44.393Z,80
2017-09-01T13:01:54.739Z,95
2017-09-01T13:03:05.127Z,115
2017-09-01T13:04:17.923Z,145
2017-09-01T13:05:31.350Z,165
2017-09-01T13:06:42.278Z,205
2017-09-01T13:07:52.298Z,250
2017-09-01T13:09:02.655Z,275
2017-09-01T13:10:12.709Z,290
2017-09-01T13:11:23.089Z,290
2017-09-01T13:14:19.591Z,270
2017-09-01T13:15:29.949Z,250
2017-09-01T13:16:40.301Z,235
2017-09-01T13:17:50.640Z,215
2017-09-01T13:19:01.027Z,195
2017-09-01T13:20:11.069Z,180
2017-09-01T13:21:21.441Z,160
2017-09-01T13:22:31.890Z,145
2017-09-01T13:23:42.253Z,135
2017-09-01T13:24:52.801Z,120
2017-09-01T13:26:03.204Z,120
2017-09-01T13:27:13.279Z,125
2017-09-01T13:28:23.390Z,120
2017-09-01T13:29:33.775Z,120
2017-09-01T13:30:43.831Z,120
2017-09-01T13:31:54.199Z,105
2017-09-01T13:33:04.566Z,100
2017-09-01T13:34:14.687Z,105
2017-09-01T13:35:25.045Z,100
2017-09-01T13:36:35.416Z,80
2017-09-01T13:37:47.509Z,75
2017-09-01T13:38:57.880Z,80
2017-09-01T13:40:07.966Z,70
2017-09-01T13:41:18.325Z,65
2017-09-01T13:42:28.373Z,55
2017-09-01T13:43:38.154Z,45
2017-09-01T13:44:48.208Z,40
2017-09-01T13:45:58.597Z,40
2017-09-01T13:47:08.965Z,40
2017-09-01T13:48:19.018Z,40
2017-09-01T13:49:29.392Z,45
2017-09-01T13:50:39.148Z,50
2017-09-01T13:51:55.925Z,70
2017-09-01T13:53:05.982Z,95
2017-09-01T13:54:16.015Z,125
2017-09-01T13:55:26.511Z,160
2017-09-01T13:56:36.869Z,175
2017-09-01T13:57:47.268Z,175
2017-09-01T13:58:57.616Z,165
2017-09-01T14:00:07.653Z,150
2017-09-01T14:01:20.077Z,130
2017-09-01T14:02:30.439Z,120
2017-09-01T14:03:40.838Z,115
2017-09-01T14:04:50.889Z,105
2017-09-01T14:06:01.236Z,115
2017-09-01T14:07:11.272Z,135
2017-09-01T14:08:21.616Z,150
2017-09-01T14:09:32.026Z,145
2017-09-01T14:10:42.369Z,130
2017-09-01T14:11:52.731Z,115
2017-09-01T14:13:03.636Z,105
2017-09-01T14:14:13.665Z,90
2017-09-01T14:15:24.465Z,80
2017-09-01T14:16:34.849Z,80
2017-09-01T14:17:44.885Z,80
2017-09-01T14:18:55.841Z,80
2017-09-01T14:20:06.847Z,75
2017-09-01T14:21:17.883Z,75
2017-09-01T14:22:27.927Z,75
2017-09-01T14:23:38.303Z,70
2017-09-01T14:24:48.377Z,70
2017-09-01T14:25:58.739Z,75
2017-09-01T14:27:09.154Z,75
2017-09-01T14:28:19.242Z,75
2017-09-01T14:29:28.966Z,70
2017-09-01T14:30:39.312Z,65
2017-09-01T14:31:49.351Z,65
2017-09-01T14:33:00.711Z,65
2017-09-01T14:34:10.106Z,65
2017-09-01T14:35:20.452Z,70
2017-09-01T14:36:30.174Z,65
2017-09-01T14:37:40.539Z,55
2017-09-01T14:38:50.556Z,50
2017-09-01T14:40:00.914Z,50
2017-09-01T14:41:11.285Z,55
2017-09-01T14:42:21.632Z,60
2017-09-01T14:43:31.724Z,60
2017-09-01T14:44:41.776Z,60
2017-09-01T14:45:54.181Z,65
2017-09-01T14:47:04.238Z,60
2017-09-01T14:48:14.292Z,60
2017-09-01T14:49:24.727Z,65
2017-09-01T14:50:34.470Z,65
2017-09-01T14:51:44.187Z,60
2017-09-01T14:52:54.567Z,55
2017-09-01T14:54:04.935Z,55
2017-09-01T14:55:15.283Z,55
2017-09-01T14:56:25.318Z,50
2017-09-01T14:57:35.744Z,45
2017-09-01T14:58:46.093Z,50
2017-09-01T14:59:56.488Z,50
2017-09-01T15:01:06.853Z,50
2017-09-01T15:02:18.792Z,45
2017-09-01T15:03:28.510Z,50
2017-09-01T15:04:38.850Z,45
2017-09-01T15:05:50.638Z,45
2017-09-01T15:07:01.000Z,45
2017-09-01T15:08:11.362Z,45
2017-09-01T15:09:21.783Z,45
2017-09-01T15:10:32.151Z,45
2017-09-01T15:11:42.195Z,50
2017-09-01T15:12:52.549Z,55
2017-09-01T15:14:02.925Z,55
2017-09-01T15:15:13.333Z,50
2017-09-01T15:16:23.694Z,50
2017-09-01T15:17:33.744Z,50
2017-09-01T15:18:48.276Z,50
2017-09-01T15:20:00.581Z,50
2017-09-01T15:21:10.940Z,45
2017-09-01T15:22:20.986Z,40
2017-09-01T15:23:31.329Z,35
2017-09-01T15:24:41.078Z,35
2017-09-01T15:25:51.563Z,30
2017-09-01T15:27:01.986Z,30
2017-09-01T15:28:12.465Z,25
2017-09-01T15:29:22.812Z,25
2017-09-01T15:30:33.169Z,25
2017-09-01T15:31:43.204Z,25
2017-09-01T15:32:54.638Z,25
2017-09-01T15:34:04.974Z,20
2017-09-01T15:35:15.348Z,20
2017-09-01T15:36:25.383Z,15
2017-09-01T15:37:35.731Z,15
2017-09-01T15:38:46.120Z,15
2017-09-01T15:39:56.136Z,15
2017-09-01T15:41:06.191Z,15
2017-09-01T15:42:16.252Z,10
2017-09-01T15:43:26.294Z,10
2017-09-01T15:44:36.389Z,15
2017-09-01T15:45:46.781Z,15
2017-09-01T15:46:57.163Z,15
2017-09-01T15:48:06.887Z,15
2017-09-01T15:49:17.241Z,10
2017-09-01T15:50:27.312Z,10
2017-09-01T15:51:37.706Z,15
2017-09-01T15:52:48.080Z,15
2017-09-01T15:54:00.227Z,15
2017-09-01T15:55:12.262Z,15
2017-09-01T15:56:22.592Z,20
2017-09-01T15:57:32.944Z,20
2017-09-01T15:58:42.982Z,15
2017-09-01T15:59:53.331Z,10
2017-09-01T16:01:03.686Z,5
2017-09-01T16:02:13.734Z,5
2017-09-01T16:03:23.438Z,10
2017-09-01T16:04:33.795Z,15
2017-09-01T16:05:44.140Z,15
2017-09-01T16:06:54.496Z,15
2017-09-01T16:08:04.563Z,10
2017-09-01T16:09:14.592Z,10
2017-09-01T16:10:24.937Z,10
2017-09-01T16:11:36.022Z,10
2017-09-01T16:12:46.296Z,10
2017-09-01T16:13:56.061Z,15
2017-09-01T16:15:06.413Z,15
2017-09-01T16:16:16.444Z,10
2017-09-01T16:17:26.788Z,15
2017-09-01T16:18:38.883Z,15
2017-09-01T16:19:49.281Z,20
2017-09-01T16:20:59.620Z,20
2017-09-01T16:22:09.962Z,15
2017-09-01T16:23:19.994Z,15
2017-09-01T16:24:30.039Z,15
2017-09-01T16:25:40.432Z,20
2017-09-01T16:26:50.827Z,20
2017-09-01T16:28:01.264Z,25
2017-09-01T16:29:11.697Z,25
2017-09-01T16:30:22.145Z,20
2017-09-01T16:31:32.596Z,20
2017-09-01T16:32:43.013Z,20
2017-09-01T16:33:53.366Z,20
2017-09-01T16:35:03.424Z,20
2017-09-01T16:36:13.214Z,20
2017-09-01T16:37:23.631Z,15
2017-09-01T16:38:34.032Z,15
2017-09-01T16:39:44.488Z,10
2017-09-01T16:40:54.956Z,10
2017-09-01T16:42:05.022Z,10
2017-09-01T16:43:15.466Z,10
2017-09-01T16:44:25.851Z,10
2017-09-01T16:45:36.214Z,15
2017-09-01T16:46:46.255Z,15
2017-09-01T16:47:56.292Z,10
2017-09-01T16:49:06.061Z,10
2017-09-01T16:50:16.093Z,10
2017-09-01T16:51:26.128Z,10
2017-09-01T16:52:36.151Z,10
2017-09-01T16:53:46.185Z,10
2017-09-01T16:54:56.550Z,10
2017-09-01T16:56:06.249Z,10
2017-09-01T16:57:16.361Z,10
2017-09-01T16:58:29.110Z,10
2017-09-01T16:59:41.839Z,10
2017-09-01T17:00:51.925Z,5
2017-09-01T17:02:02.692Z,5
2017-09-01T17:03:13.191Z,5
2017-09-01T17:04:23.556Z,5
2017-09-01T17:05:33.583Z,5
2017-09-01T17:06:44.061Z,5
2017-09-01T17:07:54.418Z,5
2017-09-01T17:09:04.786Z,5